sensor_id;sensor_type;location;lat;lon;timestamp;pressure;altitude;pressure_sealevel;temperature;humidity
19236;BME280;9752;54.270;12.470;2023-03-18T00:01:58;100964.06;;;6.75;100.00
19236;BME280;9752;54.270;12.470;2023-03-18T00:07:00;100960.94;;;6.79;100.00
19236;BME280;9752;54.270;12.470;2023-03-18T00:12:03;100970.84;;;6.84;100.00
19236;BME280;9752;54.270;12.470;2023-03-18T00:17:05;100963.59;;;6.91;100.00
19236;BME280;9752;54.270;12.470;2023-03-18T00:22:07;100962.63;;;7.00;100.00
19236;BME280;9752;54.270;12.470;2023-03-18T00:27:10;100962.53;;;7.11;100.00
19236;BME280;9752;54.270;12.470;2023-03-18T00:32:13;100974.03;;;7.26;100.00
19236;BME280;9752;54.270;12.470;2023-03-18T00:37:15;100968.81;;;7.36;100.00
19236;BME280;9752;54.270;12.470;2023-03-18T00:42:28;100962.28;;;7.41;100.00
19236;BME280;9752;54.270;12.470;2023-03-18T00:47:36;100956.56;;;7.34;100.00
19236;BME280;9752;54.270;12.470;2023-03-18T00:52:38;100953.53;;;7.39;100.00
19236;BME280;9752;54.270;12.470;2023-03-18T00:57:41;100946.47;;;7.37;100.00
19236;BME280;9752;54.270;12.470;2023-03-18T01:02:43;100959.03;;;7.32;100.00
19236;BME280;9752;54.270;12.470;2023-03-18T01:07:45;100948.91;;;7.23;100.00
19236;BME280;9752;54.270;12.470;2023-03-18T01:12:49;100943.47;;;7.09;100.00
19236;BME280;9752;54.270;12.470;2023-03-18T01:17:51;100925.28;;;6.95;100.00
19236;BME280;9752;54.270;12.470;2023-03-18T01:22:56;100935.03;;;6.99;100.00
19236;BME280;9752;54.270;12.470;2023-03-18T01:28:00;100928.53;;;6.93;100.00
19236;BME280;9752;54.270;12.470;2023-03-18T01:33:04;100922.09;;;6.88;100.00
19236;BME280;9752;54.270;12.470;2023-03-18T01:38:10;100927.81;;;6.83;100.00
19236;BME280;9752;54.270;12.470;2023-03-18T01:43:16;100919.25;;;6.73;100.00
19236;BME280;9752;54.270;12.470;2023-03-18T01:48:22;100926.13;;;6.62;100.00
19236;BME280;9752;54.270;12.470;2023-03-18T01:53:27;100930.28;;;6.60;100.00
19236;BME280;9752;54.270;12.470;2023-03-18T01:58:34;100924.19;;;6.70;100.00
19236;BME280;9752;54.270;12.470;2023-03-18T02:03:40;100924.28;;;6.71;100.00
19236;BME280;9752;54.270;12.470;2023-03-18T02:08:43;100919.38;;;6.74;100.00
19236;BME280;9752;54.270;12.470;2023-03-18T02:13:46;100942.69;;;6.76;100.00
19236;BME280;9752;54.270;12.470;2023-03-18T02:18:51;100940.66;;;6.72;100.00
19236;BME280;9752;54.270;12.470;2023-03-18T02:23:59;100944.78;;;6.70;100.00
19236;BME280;9752;54.270;12.470;2023-03-18T02:29:05;100954.84;;;6.67;100.00
19236;BME280;9752;54.270;12.470;2023-03-18T02:34:18;100956.41;;;6.64;100.00
19236;BME280;9752;54.270;12.470;2023-03-18T02:39:21;100968.22;;;6.73;100.00
19236;BME280;9752;54.270;12.470;2023-03-18T02:44:27;100970.56;;;6.70;100.00
19236;BME280;9752;54.270;12.470;2023-03-18T02:49:50;100974.69;;;6.68;100.00
19236;BME280;9752;54.270;12.470;2023-03-18T02:54:52;100979.84;;;6.68;100.00
19236;BME280;9752;54.270;12.470;2023-03-18T02:59:59;100977.69;;;6.62;100.00
19236;BME280;9752;54.270;12.470;2023-03-18T03:05:01;100983.25;;;6.56;100.00
19236;BME280;9752;54.270;12.470;2023-03-18T03:10:04;100978.75;;;6.54;100.00
19236;BME280;9752;54.270;12.470;2023-03-18T03:15:09;100990.09;;;6.56;100.00
19236;BME280;9752;54.270;12.470;2023-03-18T03:20:18;100977.38;;;6.47;100.00
19236;BME280;9752;54.270;12.470;2023-03-18T03:25:20;100979.59;;;6.42;100.00
19236;BME280;9752;54.270;12.470;2023-03-18T03:30:23;100977.94;;;6.33;100.00
19236;BME280;9752;54.270;12.470;2023-03-18T03:35:26;100964.34;;;6.23;100.00
19236;BME280;9752;54.270;12.470;2023-03-18T03:40:28;100955.38;;;6.08;100.00
19236;BME280;9752;54.270;12.470;2023-03-18T03:45:31;100955.00;;;5.93;100.00
19236;BME280;9752;54.270;12.470;2023-03-18T03:50:33;100962.84;;;5.95;100.00
19236;BME280;9752;54.270;12.470;2023-03-18T03:55:37;100953.88;;;6.00;100.00
19236;BME280;9752;54.270;12.470;2023-03-18T04:00:40;100956.94;;;6.06;100.00
19236;BME280;9752;54.270;12.470;2023-03-18T04:05:42;100951.53;;;6.03;100.00
19236;BME280;9752;54.270;12.470;2023-03-18T04:10:43;100954.00;;;6.01;100.00
19236;BME280;9752;54.270;12.470;2023-03-18T04:15:47;100958.38;;;6.02;100.00
19236;BME280;9752;54.270;12.470;2023-03-18T04:20:52;100968.00;;;6.05;100.00
19236;BME280;9752;54.270;12.470;2023-03-18T04:26:09;100960.53;;;6.08;100.00
19236;BME280;9752;54.270;12.470;2023-03-18T04:31:14;100952.03;;;6.09;100.00
19236;BME280;9752;54.270;12.470;2023-03-18T04:36:16;100947.91;;;6.11;100.00
19236;BME280;9752;54.270;12.470;2023-03-18T04:41:19;100956.94;;;6.06;100.00
19236;BME280;9752;54.270;12.470;2023-03-18T04:46:22;100943.25;;;6.17;100.00
19236;BME280;9752;54.270;12.470;2023-03-18T04:51:25;100961.00;;;6.14;100.00
19236;BME280;9752;54.270;12.470;2023-03-18T04:56:28;100956.41;;;6.10;100.00
19236;BME280;9752;54.270;12.470;2023-03-18T05:01:33;100940.19;;;6.11;100.00
19236;BME280;9752;54.270;12.470;2023-03-18T05:06:35;100943.91;;;6.15;100.00
19236;BME280;9752;54.270;12.470;2023-03-18T05:11:42;100934.97;;;6.21;100.00
19236;BME280;9752;54.270;12.470;2023-03-18T05:17:09;100916.13;;;6.33;100.00
19236;BME280;9752;54.270;12.470;2023-03-18T05:22:17;100908.31;;;6.43;100.00
19236;BME280;9752;54.270;12.470;2023-03-18T05:27:22;100900.31;;;6.50;100.00
19236;BME280;9752;54.270;12.470;2023-03-18T05:32:36;100917.16;;;6.57;100.00
19236;BME280;9752;54.270;12.470;2023-03-18T05:37:40;100921.22;;;6.65;100.00
19236;BME280;9752;54.270;12.470;2023-03-18T05:42:42;100946.81;;;6.52;100.00
19236;BME280;9752;54.270;12.470;2023-03-18T05:47:47;100959.25;;;6.35;100.00
19236;BME280;9752;54.270;12.470;2023-03-18T05:52:49;100965.16;;;6.12;100.00
19236;BME280;9752;54.270;12.470;2023-03-18T05:57:55;100964.25;;;6.12;100.00
19236;BME280;9752;54.270;12.470;2023-03-18T06:03:00;100967.44;;;6.19;100.00
19236;BME280;9752;54.270;12.470;2023-03-18T06:08:02;100967.41;;;6.30;100.00
19236;BME280;9752;54.270;12.470;2023-03-18T06:13:08;100971.72;;;6.41;100.00
19236;BME280;9752;54.270;12.470;2023-03-18T06:18:12;100982.75;;;6.50;100.00
19236;BME280;9752;54.270;12.470;2023-03-18T06:23:14;100986.25;;;6.51;100.00
19236;BME280;9752;54.270;12.470;2023-03-18T06:28:16;100989.59;;;6.50;100.00
19236;BME280;9752;54.270;12.470;2023-03-18T06:33:19;100999.50;;;6.55;100.00
19236;BME280;9752;54.270;12.470;2023-03-18T06:38:21;101002.94;;;6.66;100.00
19236;BME280;9752;54.270;12.470;2023-03-18T06:43:24;101007.34;;;6.79;100.00
19236;BME280;9752;54.270;12.470;2023-03-18T06:48:28;101008.50;;;7.04;100.00
19236;BME280;9752;54.270;12.470;2023-03-18T06:53:32;101022.47;;;7.18;100.00
19236;BME280;9752;54.270;12.470;2023-03-18T06:58:36;101021.47;;;7.28;100.00
19236;BME280;9752;54.270;12.470;2023-03-18T07:03:44;101032.91;;;7.20;100.00
19236;BME280;9752;54.270;12.470;2023-03-18T07:08:48;101036.50;;;7.22;100.00
19236;BME280;9752;54.270;12.470;2023-03-18T07:13:50;101034.50;;;7.30;100.00
19236;BME280;9752;54.270;12.470;2023-03-18T07:19:02;101041.53;;;7.42;100.00
19236;BME280;9752;54.270;12.470;2023-03-18T07:24:05;101032.66;;;7.51;100.00
19236;BME280;9752;54.270;12.470;2023-03-18T07:29:07;101049.31;;;7.66;100.00
19236;BME280;9752;54.270;12.470;2023-03-18T07:34:11;101051.22;;;8.02;100.00
19236;BME280;9752;54.270;12.470;2023-03-18T07:39:15;101056.06;;;8.45;100.00
19236;BME280;9752;54.270;12.470;2023-03-18T07:44:16;101060.66;;;8.37;100.00
19236;BME280;9752;54.270;12.470;2023-03-18T07:49:19;101062.56;;;8.28;100.00
19236;BME280;9752;54.270;12.470;2023-03-18T07:54:21;101075.84;;;8.45;100.00
19236;BME280;9752;54.270;12.470;2023-03-18T07:59:23;101082.66;;;8.79;100.00
19236;BME280;9752;54.270;12.470;2023-03-18T08:04:26;101078.28;;;8.67;100.00
19236;BME280;9752;54.270;12.470;2023-03-18T08:09:28;101064.06;;;8.48;100.00
19236;BME280;9752;54.270;12.470;2023-03-18T08:14:30;101071.25;;;8.52;100.00
19236;BME280;9752;54.270;12.470;2023-03-18T08:19:33;101075.97;;;8.46;100.00
19236;BME280;9752;54.270;12.470;2023-03-18T08:24:35;101070.56;;;8.55;100.00
19236;BME280;9752;54.270;12.470;2023-03-18T08:29:37;101070.09;;;8.84;100.00
19236;BME280;9752;54.270;12.470;2023-03-18T08:34:40;101062.28;;;8.96;100.00
19236;BME280;9752;54.270;12.470;2023-03-18T08:39:42;101061.63;;;9.24;100.00
19236;BME280;9752;54.270;12.470;2023-03-18T08:44:44;101062.00;;;9.16;100.00
19236;BME280;9752;54.270;12.470;2023-03-18T08:49:47;101050.72;;;9.16;100.00
19236;BME280;9752;54.270;12.470;2023-03-18T08:54:49;101041.56;;;9.58;100.00
19236;BME280;9752;54.270;12.470;2023-03-18T08:59:50;101043.66;;;10.15;100.00
19236;BME280;9752;54.270;12.470;2023-03-18T09:04:53;101047.75;;;10.65;100.00
19236;BME280;9752;54.270;12.470;2023-03-18T09:09:55;101058.72;;;11.16;100.00
19236;BME280;9752;54.270;12.470;2023-03-18T09:14:57;101047.44;;;11.59;100.00
19236;BME280;9752;54.270;12.470;2023-03-18T09:20:00;101044.19;;;11.76;100.00
19236;BME280;9752;54.270;12.470;2023-03-18T09:25:02;101048.13;;;11.84;100.00
19236;BME280;9752;54.270;12.470;2023-03-18T09:30:04;101041.34;;;12.16;100.00
19236;BME280;9752;54.270;12.470;2023-03-18T09:35:08;101044.31;;;12.54;100.00
19236;BME280;9752;54.270;12.470;2023-03-18T09:40:15;101044.13;;;12.65;100.00
19236;BME280;9752;54.270;12.470;2023-03-18T09:45:23;101046.97;;;12.70;100.00
19236;BME280;9752;54.270;12.470;2023-03-18T09:50:35;101050.72;;;13.23;100.00
19236;BME280;9752;54.270;12.470;2023-03-18T09:55:42;101039.78;;;13.79;100.00
19236;BME280;9752;54.270;12.470;2023-03-18T10:00:46;101046.63;;;14.12;100.00
19236;BME280;9752;54.270;12.470;2023-03-18T10:05:51;101059.69;;;13.61;100.00
19236;BME280;9752;54.270;12.470;2023-03-18T10:10:54;101060.38;;;13.91;100.00
19236;BME280;9752;54.270;12.470;2023-03-18T10:15:57;101057.78;;;13.75;100.00
19236;BME280;9752;54.270;12.470;2023-03-18T10:21:09;101067.88;;;13.85;100.00
19236;BME280;9752;54.270;12.470;2023-03-18T10:26:20;101073.63;;;13.96;100.00
19236;BME280;9752;54.270;12.470;2023-03-18T10:31:33;101071.16;;;14.15;100.00
19236;BME280;9752;54.270;12.470;2023-03-18T10:36:47;101058.88;;;14.31;100.00
19236;BME280;9752;54.270;12.470;2023-03-18T10:41:51;101072.03;;;14.34;100.00
19236;BME280;9752;54.270;12.470;2023-03-18T10:46:57;101085.56;;;13.91;100.00
19236;BME280;9752;54.270;12.470;2023-03-18T10:52:04;101064.88;;;14.12;100.00
19236;BME280;9752;54.270;12.470;2023-03-18T10:57:11;101076.69;;;14.75;100.00
19236;BME280;9752;54.270;12.470;2023-03-18T11:02:17;101072.88;;;15.05;100.00
19236;BME280;9752;54.270;12.470;2023-03-18T11:07:24;101074.34;;;15.37;100.00
19236;BME280;9752;54.270;12.470;2023-03-18T11:12:27;101094.19;;;15.72;100.00
19236;BME280;9752;54.270;12.470;2023-03-18T11:17:31;101092.34;;;15.70;100.00
19236;BME280;9752;54.270;12.470;2023-03-18T11:22:36;101090.44;;;14.89;100.00
19236;BME280;9752;54.270;12.470;2023-03-18T11:27:46;101090.81;;;14.79;100.00
19236;BME280;9752;54.270;12.470;2023-03-18T11:32:53;101074.59;;;14.86;100.00
19236;BME280;9752;54.270;12.470;2023-03-18T11:38:01;101086.84;;;14.69;100.00
19236;BME280;9752;54.270;12.470;2023-03-18T11:43:14;101075.13;;;14.79;100.00
19236;BME280;9752;54.270;12.470;2023-03-18T11:48:22;101070.19;;;15.03;100.00
19236;BME280;9752;54.270;12.470;2023-03-18T11:53:38;101073.59;;;15.78;100.00
19236;BME280;9752;54.270;12.470;2023-03-18T11:59:11;101073.53;;;15.98;100.00
19236;BME280;9752;54.270;12.470;2023-03-18T12:04:29;101068.03;;;16.55;100.00
19236;BME280;9752;54.270;12.470;2023-03-18T12:09:44;101074.66;;;16.24;100.00
19236;BME280;9752;54.270;12.470;2023-03-18T12:14:52;101088.59;;;15.83;100.00
19236;BME280;9752;54.270;12.470;2023-03-18T12:20:19;101084.09;;;15.99;100.00
19236;BME280;9752;54.270;12.470;2023-03-18T12:25:45;101090.78;;;16.35;100.00
19236;BME280;9752;54.270;12.470;2023-03-18T12:31:14;101104.78;;;15.36;100.00
19236;BME280;9752;54.270;12.470;2023-03-18T12:36:38;101109.44;;;15.05;100.00
19236;BME280;9752;54.270;12.470;2023-03-18T12:41:52;101119.41;;;15.13;100.00
19236;BME280;9752;54.270;12.470;2023-03-18T12:47:02;101123.34;;;14.86;100.00
19236;BME280;9752;54.270;12.470;2023-03-18T12:52:09;101123.72;;;14.93;100.00
19236;BME280;9752;54.270;12.470;2023-03-18T12:57:31;101121.22;;;14.96;100.00
19236;BME280;9752;54.270;12.470;2023-03-18T13:02:42;101117.38;;;15.26;100.00
19236;BME280;9752;54.270;12.470;2023-03-18T13:07:48;101126.88;;;15.43;100.00
19236;BME280;9752;54.270;12.470;2023-03-18T13:12:56;101130.19;;;15.39;100.00
19236;BME280;9752;54.270;12.470;2023-03-18T13:18:02;101138.81;;;15.56;100.00
19236;BME280;9752;54.270;12.470;2023-03-18T13:23:22;101132.28;;;15.46;100.00
19236;BME280;9752;54.270;12.470;2023-03-18T13:28:41;101145.50;;;14.94;100.00
19236;BME280;9752;54.270;12.470;2023-03-18T13:33:54;101151.59;;;14.94;100.00
19236;BME280;9752;54.270;12.470;2023-03-18T13:39:07;101152.59;;;14.78;100.00
19236;BME280;9752;54.270;12.470;2023-03-18T13:44:18;101157.38;;;14.53;100.00
19236;BME280;9752;54.270;12.470;2023-03-18T13:49:27;101161.50;;;14.31;100.00
19236;BME280;9752;54.270;12.470;2023-03-18T13:54:32;101157.38;;;14.18;100.00
19236;BME280;9752;54.270;12.470;2023-03-18T13:59:45;101170.28;;;14.15;100.00
19236;BME280;9752;54.270;12.470;2023-03-18T14:04:48;101169.78;;;14.57;100.00
19236;BME280;9752;54.270;12.470;2023-03-18T14:09:52;101174.41;;;14.62;100.00
19236;BME280;9752;54.270;12.470;2023-03-18T14:15:00;101181.03;;;14.56;100.00
19236;BME280;9752;54.270;12.470;2023-03-18T14:20:16;101185.81;;;14.30;100.00
19236;BME280;9752;54.270;12.470;2023-03-18T14:25:40;101186.66;;;14.47;100.00
19236;BME280;9752;54.270;12.470;2023-03-18T14:30:46;101189.38;;;14.32;100.00
19236;BME280;9752;54.270;12.470;2023-03-18T14:35:52;101189.03;;;14.08;100.00
19236;BME280;9752;54.270;12.470;2023-03-18T14:40:57;101191.50;;;14.39;100.00
19236;BME280;9752;54.270;12.470;2023-03-18T14:46:06;101188.94;;;14.23;100.00
19236;BME280;9752;54.270;12.470;2023-03-18T14:51:12;101187.81;;;14.01;100.00
19236;BME280;9752;54.270;12.470;2023-03-18T14:56:16;101189.91;;;14.25;100.00
19236;BME280;9752;54.270;12.470;2023-03-18T15:01:23;101193.06;;;14.36;100.00
19236;BME280;9752;54.270;12.470;2023-03-18T15:06:27;101199.16;;;14.02;100.00
19236;BME280;9752;54.270;12.470;2023-03-18T15:11:30;101206.72;;;14.14;100.00
19236;BME280;9752;54.270;12.470;2023-03-18T15:16:39;101206.84;;;14.33;100.00
19236;BME280;9752;54.270;12.470;2023-03-18T15:21:40;101199.03;;;16.35;100.00
19236;BME280;9752;54.270;12.470;2023-03-18T15:26:42;101204.03;;;17.13;100.00
19236;BME280;9752;54.270;12.470;2023-03-18T15:31:46;101200.84;;;16.17;100.00
19236;BME280;9752;54.270;12.470;2023-03-18T15:36:51;101213.44;;;15.69;100.00
19236;BME280;9752;54.270;12.470;2023-03-18T15:41:53;101204.16;;;16.95;100.00
19236;BME280;9752;54.270;12.470;2023-03-18T15:47:09;101226.06;;;15.40;100.00
19236;BME280;9752;54.270;12.470;2023-03-18T15:52:15;101222.13;;;15.68;100.00
19236;BME280;9752;54.270;12.470;2023-03-18T15:57:24;101227.34;;;15.86;100.00
19236;BME280;9752;54.270;12.470;2023-03-18T16:02:29;101232.94;;;14.84;100.00
19236;BME280;9752;54.270;12.470;2023-03-18T16:07:31;101233.34;;;14.24;100.00
19236;BME280;9752;54.270;12.470;2023-03-18T16:12:39;101240.19;;;14.22;100.00
19236;BME280;9752;54.270;12.470;2023-03-18T16:17:45;101253.53;;;13.63;100.00
19236;BME280;9752;54.270;12.470;2023-03-18T16:22:48;101251.13;;;13.66;100.00
19236;BME280;9752;54.270;12.470;2023-03-18T16:27:50;101259.06;;;13.53;100.00
19236;BME280;9752;54.270;12.470;2023-03-18T16:32:55;101264.72;;;13.60;100.00
19236;BME280;9752;54.270;12.470;2023-03-18T16:37:58;101267.66;;;14.32;100.00
19236;BME280;9752;54.270;12.470;2023-03-18T16:42:59;101262.38;;;14.63;100.00
19236;BME280;9752;54.270;12.470;2023-03-18T16:48:04;101272.97;;;14.50;100.00
19236;BME280;9752;54.270;12.470;2023-03-18T16:53:12;101274.88;;;13.56;100.00
19236;BME280;9752;54.270;12.470;2023-03-18T16:58:20;101281.13;;;12.83;100.00
19236;BME280;9752;54.270;12.470;2023-03-18T17:03:24;101284.38;;;12.36;100.00
19236;BME280;9752;54.270;12.470;2023-03-18T17:08:26;101290.25;;;11.77;100.00
19236;BME280;9752;54.270;12.470;2023-03-18T17:13:30;101302.28;;;11.22;100.00
19236;BME280;9752;54.270;12.470;2023-03-18T17:18:34;101295.56;;;10.85;100.00
19236;BME280;9752;54.270;12.470;2023-03-18T17:23:36;101309.03;;;10.54;100.00
19236;BME280;9752;54.270;12.470;2023-03-18T17:28:40;101312.88;;;10.23;100.00
19236;BME280;9752;54.270;12.470;2023-03-18T17:33:45;101315.09;;;9.93;100.00
19236;BME280;9752;54.270;12.470;2023-03-18T17:38:47;101318.31;;;9.65;100.00
19236;BME280;9752;54.270;12.470;2023-03-18T17:43:51;101336.47;;;9.42;100.00
19236;BME280;9752;54.270;12.470;2023-03-18T17:48:54;101346.25;;;9.22;100.00
19236;BME280;9752;54.270;12.470;2023-03-18T17:53:57;101343.53;;;9.09;100.00
19236;BME280;9752;54.270;12.470;2023-03-18T17:59:01;101342.91;;;8.89;100.00
19236;BME280;9752;54.270;12.470;2023-03-18T18:04:05;101348.03;;;8.66;100.00
19236;BME280;9752;54.270;12.470;2023-03-18T18:09:09;101355.50;;;8.51;100.00
19236;BME280;9752;54.270;12.470;2023-03-18T18:14:16;101357.97;;;8.27;100.00
19236;BME280;9752;54.270;12.470;2023-03-18T18:19:22;101360.47;;;8.15;100.00
19236;BME280;9752;54.270;12.470;2023-03-18T18:24:27;101359.63;;;8.05;100.00
19236;BME280;9752;54.270;12.470;2023-03-18T18:29:29;101366.53;;;7.94;100.00
19236;BME280;9752;54.270;12.470;2023-03-18T18:34:32;101374.34;;;7.84;100.00
19236;BME280;9752;54.270;12.470;2023-03-18T18:39:35;101376.94;;;7.73;100.00
19236;BME280;9752;54.270;12.470;2023-03-18T18:44:36;101376.94;;;7.73;100.00
19236;BME280;9752;54.270;12.470;2023-03-18T18:49:39;101382.78;;;7.60;100.00
19236;BME280;9752;54.270;12.470;2023-03-18T18:54:42;101389.63;;;7.60;100.00
19236;BME280;9752;54.270;12.470;2023-03-18T18:59:44;101387.13;;;7.29;100.00
19236;BME280;9752;54.270;12.470;2023-03-18T19:04:48;101399.13;;;7.29;100.00
19236;BME280;9752;54.270;12.470;2023-03-18T19:09:49;101405.94;;;7.38;100.00
19236;BME280;9752;54.270;12.470;2023-03-18T19:14:52;101402.34;;;7.16;100.00
19236;BME280;9752;54.270;12.470;2023-03-18T19:19:55;101411.22;;;7.30;100.00
19236;BME280;9752;54.270;12.470;2023-03-18T19:24:57;101408.69;;;7.19;100.00
19236;BME280;9752;54.270;12.470;2023-03-18T19:30:00;101414.22;;;7.03;100.00
19236;BME280;9752;54.270;12.470;2023-03-18T19:35:11;101413.69;;;7.18;100.00
19236;BME280;9752;54.270;12.470;2023-03-18T19:40:25;101430.72;;;7.06;100.00
19236;BME280;9752;54.270;12.470;2023-03-18T19:45:28;101436.91;;;6.87;100.00
19236;BME280;9752;54.270;12.470;2023-03-18T19:50:31;101445.63;;;6.58;100.00
19236;BME280;9752;54.270;12.470;2023-03-18T19:55:34;101450.25;;;6.52;100.00
19236;BME280;9752;54.270;12.470;2023-03-18T20:00:36;101448.00;;;6.36;100.00
19236;BME280;9752;54.270;12.470;2023-03-18T20:05:39;101453.81;;;6.34;100.00
19236;BME280;9752;54.270;12.470;2023-03-18T20:10:42;101469.31;;;6.54;100.00
19236;BME280;9752;54.270;12.470;2023-03-18T20:15:44;101478.59;;;6.52;100.00
19236;BME280;9752;54.270;12.470;2023-03-18T20:20:48;101611.31;;;6.47;100.00
19236;BME280;9752;54.270;12.470;2023-03-18T20:25:51;101661.66;;;6.43;100.00
19236;BME280;9752;54.270;12.470;2023-03-18T20:30:53;101669.72;;;6.00;100.00
19236;BME280;9752;54.270;12.470;2023-03-18T20:35:57;101681.03;;;5.74;100.00
19236;BME280;9752;54.270;12.470;2023-03-18T20:40:59;101691.25;;;5.55;100.00
19236;BME280;9752;54.270;12.470;2023-03-18T20:46:01;101699.75;;;5.54;100.00
19236;BME280;9752;54.270;12.470;2023-03-18T20:51:09;101715.03;;;5.53;100.00
19236;BME280;9752;54.270;12.470;2023-03-18T20:56:17;101721.72;;;5.51;100.00
19236;BME280;9752;54.270;12.470;2023-03-18T21:01:22;101735.78;;;5.45;100.00
19236;BME280;9752;54.270;12.470;2023-03-18T21:06:26;101750.50;;;5.46;100.00
19236;BME280;9752;54.270;12.470;2023-03-18T21:11:29;101768.88;;;5.68;100.00
19236;BME280;9752;54.270;12.470;2023-03-18T21:16:32;101769.91;;;5.71;100.00
19236;BME280;9752;54.270;12.470;2023-03-18T21:21:37;101783.53;;;5.78;100.00
19236;BME280;9752;54.270;12.470;2023-03-18T21:26:39;101789.34;;;5.58;100.00
19236;BME280;9752;54.270;12.470;2023-03-18T21:31:40;101790.28;;;5.41;100.00
19236;BME280;9752;54.270;12.470;2023-03-18T21:36:43;101810.28;;;5.26;100.00
19236;BME280;9752;54.270;12.470;2023-03-18T21:41:45;101810.03;;;4.97;100.00
19236;BME280;9752;54.270;12.470;2023-03-18T21:46:47;101826.03;;;4.77;100.00
19236;BME280;9752;54.270;12.470;2023-03-18T21:51:50;101834.47;;;4.67;100.00
19236;BME280;9752;54.270;12.470;2023-03-18T21:56:52;101833.22;;;4.46;100.00
19236;BME280;9752;54.270;12.470;2023-03-18T22:01:53;101847.31;;;4.67;100.00
19236;BME280;9752;54.270;12.470;2023-03-18T22:06:56;101857.59;;;4.67;100.00
19236;BME280;9752;54.270;12.470;2023-03-18T22:11:58;101867.72;;;4.66;100.00
19236;BME280;9752;54.270;12.470;2023-03-18T22:17:00;101868.94;;;4.69;100.00
19236;BME280;9752;54.270;12.470;2023-03-18T22:22:03;101870.91;;;4.63;100.00
19236;BME280;9752;54.270;12.470;2023-03-18T22:27:04;101884.88;;;4.41;100.00
19236;BME280;9752;54.270;12.470;2023-03-18T22:32:08;101883.44;;;4.18;100.00
19236;BME280;9752;54.270;12.470;2023-03-18T22:37:18;101882.56;;;3.93;100.00
19236;BME280;9752;54.270;12.470;2023-03-18T22:42:22;101881.53;;;3.75;100.00
19236;BME280;9752;54.270;12.470;2023-03-18T22:47:25;101886.91;;;3.61;100.00
19236;BME280;9752;54.270;12.470;2023-03-18T22:52:29;101881.75;;;3.61;100.00
19236;BME280;9752;54.270;12.470;2023-03-18T22:57:31;101886.56;;;3.58;100.00
19236;BME280;9752;54.270;12.470;2023-03-18T23:02:32;101882.31;;;3.58;100.00
19236;BME280;9752;54.270;12.470;2023-03-18T23:07:35;101883.25;;;3.59;100.00
19236;BME280;9752;54.270;12.470;2023-03-18T23:12:38;101881.53;;;3.50;100.00
19236;BME280;9752;54.270;12.470;2023-03-18T23:17:41;101884.00;;;3.58;100.00
19236;BME280;9752;54.270;12.470;2023-03-18T23:22:45;101896.47;;;3.55;100.00
19236;BME280;9752;54.270;12.470;2023-03-18T23:27:47;101909.78;;;3.35;100.00
19236;BME280;9752;54.270;12.470;2023-03-18T23:32:49;101926.53;;;3.56;100.00
19236;BME280;9752;54.270;12.470;2023-03-18T23:37:52;101924.34;;;3.67;100.00
19236;BME280;9752;54.270;12.470;2023-03-18T23:42:54;101934.44;;;3.82;100.00
19236;BME280;9752;54.270;12.470;2023-03-18T23:47:56;101937.53;;;3.55;100.00
19236;BME280;9752;54.270;12.470;2023-03-18T23:52:59;101937.09;;;3.34;100.00
19236;BME280;9752;54.270;12.470;2023-03-18T23:58:02;101946.16;;;3.23;100.00
